sensor_id;sensor_type;location;lat;lon;timestamp;temperature;humidity
25346;DHT22;13300;51.032;3.710;2023-06-10T00:01:36;23.40;94.70
25346;DHT22;13300;51.032;3.710;2023-06-10T00:04:03;23.30;94.90
25346;DHT22;13300;51.032;3.710;2023-06-10T00:06:30;23.30;95.00
25346;DHT22;13300;51.032;3.710;2023-06-10T00:09:05;23.30;95.00
25346;DHT22;13300;51.032;3.710;2023-06-10T00:11:33;23.20;95.20
25346;DHT22;13300;51.032;3.710;2023-06-10T00:14:00;23.20;95.40
25346;DHT22;13300;51.032;3.710;2023-06-10T00:16:26;23.10;95.60
25346;DHT22;13300;51.032;3.710;2023-06-10T00:18:52;23.10;95.70
25346;DHT22;13300;51.032;3.710;2023-06-10T00:21:17;23.10;95.90
25346;DHT22;13300;51.032;3.710;2023-06-10T00:23:44;23.00;95.70
25346;DHT22;13300;51.032;3.710;2023-06-10T00:26:10;23.00;96.00
25346;DHT22;13300;51.032;3.710;2023-06-10T00:28:36;23.00;96.10
25346;DHT22;13300;51.032;3.710;2023-06-10T00:31:01;23.00;96.10
25346;DHT22;13300;51.032;3.710;2023-06-10T00:33:28;22.90;96.40
25346;DHT22;13300;51.032;3.710;2023-06-10T00:35:54;22.90;96.50
25346;DHT22;13300;51.032;3.710;2023-06-10T00:38:20;22.80;96.60
25346;DHT22;13300;51.032;3.710;2023-06-10T00:40:46;22.70;96.80
25346;DHT22;13300;51.032;3.710;2023-06-10T00:43:11;22.80;96.70
25346;DHT22;13300;51.032;3.710;2023-06-10T00:45:37;22.80;96.80
25346;DHT22;13300;51.032;3.710;2023-06-10T00:48:03;22.60;97.10
25346;DHT22;13300;51.032;3.710;2023-06-10T00:50:30;22.70;97.00
25346;DHT22;13300;51.032;3.710;2023-06-10T00:52:58;22.70;96.90
25346;DHT22;13300;51.032;3.710;2023-06-10T00:55:24;22.60;97.10
25346;DHT22;13300;51.032;3.710;2023-06-10T00:57:50;22.60;97.20
25346;DHT22;13300;51.032;3.710;2023-06-10T01:00:17;22.60;97.30
25346;DHT22;13300;51.032;3.710;2023-06-10T01:02:43;22.60;97.40
25346;DHT22;13300;51.032;3.710;2023-06-10T01:05:09;22.60;97.40
25346;DHT22;13300;51.032;3.710;2023-06-10T01:07:56;22.60;97.40
25346;DHT22;13300;51.032;3.710;2023-06-10T01:10:33;22.50;97.50
25346;DHT22;13300;51.032;3.710;2023-06-10T01:13:10;22.50;97.60
25346;DHT22;13300;51.032;3.710;2023-06-10T01:15:37;22.40;97.70
25346;DHT22;13300;51.032;3.710;2023-06-10T01:18:05;22.30;97.90
25346;DHT22;13300;51.032;3.710;2023-06-10T01:20:36;22.40;98.10
25346;DHT22;13300;51.032;3.710;2023-06-10T01:23:06;22.30;98.20
25346;DHT22;13300;51.032;3.710;2023-06-10T01:25:33;22.40;98.20
25346;DHT22;13300;51.032;3.710;2023-06-10T01:29:07;22.30;98.20
25346;DHT22;13300;51.032;3.710;2023-06-10T01:33:47;22.20;98.70
25346;DHT22;13300;51.032;3.710;2023-06-10T01:36:15;22.30;98.60
25346;DHT22;13300;51.032;3.710;2023-06-10T01:38:44;22.10;98.90
25346;DHT22;13300;51.032;3.710;2023-06-10T01:41:15;22.20;98.80
25346;DHT22;13300;51.032;3.710;2023-06-10T01:43:43;22.20;99.00
25346;DHT22;13300;51.032;3.710;2023-06-10T01:46:10;22.10;99.00
25346;DHT22;13300;51.032;3.710;2023-06-10T01:48:39;22.10;99.20
25346;DHT22;13300;51.032;3.710;2023-06-10T01:51:05;22.10;99.20
25346;DHT22;13300;51.032;3.710;2023-06-10T01:53:31;22.10;99.40
25346;DHT22;13300;51.032;3.710;2023-06-10T01:55:56;22.00;99.60
25346;DHT22;13300;51.032;3.710;2023-06-10T01:58:22;22.00;99.80
25346;DHT22;13300;51.032;3.710;2023-06-10T02:00:48;21.90;99.90
25346;DHT22;13300;51.032;3.710;2023-06-10T02:03:14;22.00;99.90
25346;DHT22;13300;51.032;3.710;2023-06-10T02:05:40;22.00;99.90
25346;DHT22;13300;51.032;3.710;2023-06-10T02:08:06;21.90;99.90
25346;DHT22;13300;51.032;3.710;2023-06-10T02:10:32;21.90;99.90
25346;DHT22;13300;51.032;3.710;2023-06-10T02:12:57;21.80;99.90
25346;DHT22;13300;51.032;3.710;2023-06-10T02:15:23;21.80;99.90
25346;DHT22;13300;51.032;3.710;2023-06-10T02:17:49;21.70;99.90
25346;DHT22;13300;51.032;3.710;2023-06-10T02:20:16;21.70;99.90
25346;DHT22;13300;51.032;3.710;2023-06-10T02:22:41;21.70;99.90
25346;DHT22;13300;51.032;3.710;2023-06-10T02:25:10;21.80;99.90
25346;DHT22;13300;51.032;3.710;2023-06-10T02:27:36;21.80;99.90
25346;DHT22;13300;51.032;3.710;2023-06-10T02:30:02;21.70;99.90
25346;DHT22;13300;51.032;3.710;2023-06-10T02:32:27;21.60;99.90
25346;DHT22;13300;51.032;3.710;2023-06-10T02:34:53;21.50;99.90
25346;DHT22;13300;51.032;3.710;2023-06-10T02:37:19;21.50;99.90
25346;DHT22;13300;51.032;3.710;2023-06-10T02:39:46;21.60;99.90
25346;DHT22;13300;51.032;3.710;2023-06-10T02:42:11;21.50;99.90
25346;DHT22;13300;51.032;3.710;2023-06-10T02:44:38;21.40;99.90
25346;DHT22;13300;51.032;3.710;2023-06-10T02:47:04;21.50;99.90
25346;DHT22;13300;51.032;3.710;2023-06-10T02:49:29;21.50;99.90
25346;DHT22;13300;51.032;3.710;2023-06-10T02:51:55;21.50;99.90
25346;DHT22;13300;51.032;3.710;2023-06-10T02:54:23;21.40;99.90
25346;DHT22;13300;51.032;3.710;2023-06-10T02:56:48;21.40;99.90
25346;DHT22;13300;51.032;3.710;2023-06-10T02:59:14;21.40;99.90
25346;DHT22;13300;51.032;3.710;2023-06-10T03:01:41;21.40;99.90
25346;DHT22;13300;51.032;3.710;2023-06-10T03:04:07;21.30;99.90
25346;DHT22;13300;51.032;3.710;2023-06-10T03:06:33;21.40;99.90
25346;DHT22;13300;51.032;3.710;2023-06-10T03:09:00;21.30;99.90
25346;DHT22;13300;51.032;3.710;2023-06-10T03:11:25;21.20;99.90
25346;DHT22;13300;51.032;3.710;2023-06-10T03:13:52;21.20;99.90
25346;DHT22;13300;51.032;3.710;2023-06-10T03:16:19;21.30;99.90
25346;DHT22;13300;51.032;3.710;2023-06-10T03:18:45;21.20;99.90
25346;DHT22;13300;51.032;3.710;2023-06-10T03:21:11;21.10;99.90
25346;DHT22;13300;51.032;3.710;2023-06-10T03:23:37;21.10;99.90
25346;DHT22;13300;51.032;3.710;2023-06-10T03:26:04;21.20;99.90
25346;DHT22;13300;51.032;3.710;2023-06-10T03:28:30;21.20;99.90
25346;DHT22;13300;51.032;3.710;2023-06-10T03:30:56;21.10;99.90
25346;DHT22;13300;51.032;3.710;2023-06-10T03:33:22;21.10;99.90
25346;DHT22;13300;51.032;3.710;2023-06-10T03:35:48;21.10;99.90
25346;DHT22;13300;51.032;3.710;2023-06-10T03:38:14;21.20;99.90
25346;DHT22;13300;51.032;3.710;2023-06-10T03:40:40;21.10;99.90
25346;DHT22;13300;51.032;3.710;2023-06-10T03:43:05;21.10;99.90
25346;DHT22;13300;51.032;3.710;2023-06-10T03:45:31;21.00;99.90
25346;DHT22;13300;51.032;3.710;2023-06-10T03:47:57;21.00;99.90
25346;DHT22;13300;51.032;3.710;2023-06-10T03:50:23;20.90;99.90
25346;DHT22;13300;51.032;3.710;2023-06-10T03:52:50;20.90;99.90
25346;DHT22;13300;51.032;3.710;2023-06-10T03:55:15;20.90;99.90
25346;DHT22;13300;51.032;3.710;2023-06-10T03:57:42;21.00;99.90
25346;DHT22;13300;51.032;3.710;2023-06-10T04:00:09;21.00;99.90
25346;DHT22;13300;51.032;3.710;2023-06-10T04:02:38;21.00;99.90
25346;DHT22;13300;51.032;3.710;2023-06-10T04:05:12;21.10;99.90
25346;DHT22;13300;51.032;3.710;2023-06-10T04:07:38;21.10;99.90
25346;DHT22;13300;51.032;3.710;2023-06-10T04:10:08;21.10;99.90
25346;DHT22;13300;51.032;3.710;2023-06-10T04:12:35;21.00;99.90
25346;DHT22;13300;51.032;3.710;2023-06-10T04:15:07;21.00;99.90
25346;DHT22;13300;51.032;3.710;2023-06-10T04:17:33;21.00;99.90
25346;DHT22;13300;51.032;3.710;2023-06-10T04:19:58;21.00;99.90
25346;DHT22;13300;51.032;3.710;2023-06-10T04:22:25;21.10;99.90
25346;DHT22;13300;51.032;3.710;2023-06-10T04:24:51;21.00;99.90
25346;DHT22;13300;51.032;3.710;2023-06-10T04:27:19;21.00;99.90
25346;DHT22;13300;51.032;3.710;2023-06-10T04:29:44;21.00;99.90
25346;DHT22;13300;51.032;3.710;2023-06-10T04:32:10;21.00;99.90
25346;DHT22;13300;51.032;3.710;2023-06-10T04:34:37;21.20;99.90
25346;DHT22;13300;51.032;3.710;2023-06-10T04:37:05;21.20;99.90
25346;DHT22;13300;51.032;3.710;2023-06-10T04:39:32;21.20;99.90
25346;DHT22;13300;51.032;3.710;2023-06-10T04:41:59;21.20;99.90
25346;DHT22;13300;51.032;3.710;2023-06-10T04:44:25;21.30;99.90
25346;DHT22;13300;51.032;3.710;2023-06-10T04:46:50;21.30;99.90
25346;DHT22;13300;51.032;3.710;2023-06-10T04:49:16;21.30;99.90
25346;DHT22;13300;51.032;3.710;2023-06-10T04:51:42;21.30;99.90
25346;DHT22;13300;51.032;3.710;2023-06-10T04:54:07;21.30;99.90
25346;DHT22;13300;51.032;3.710;2023-06-10T04:56:33;21.40;99.90
25346;DHT22;13300;51.032;3.710;2023-06-10T04:59:00;21.40;99.90
25346;DHT22;13300;51.032;3.710;2023-06-10T05:01:26;21.40;99.90
25346;DHT22;13300;51.032;3.710;2023-06-10T05:03:54;21.40;99.90
25346;DHT22;13300;51.032;3.710;2023-06-10T05:06:19;21.50;99.90
25346;DHT22;13300;51.032;3.710;2023-06-10T05:08:45;21.40;99.90
25346;DHT22;13300;51.032;3.710;2023-06-10T05:11:11;21.50;99.90
25346;DHT22;13300;51.032;3.710;2023-06-10T05:13:37;21.60;99.90
25346;DHT22;13300;51.032;3.710;2023-06-10T05:16:03;21.70;99.90
25346;DHT22;13300;51.032;3.710;2023-06-10T05:18:29;21.70;99.90
25346;DHT22;13300;51.032;3.710;2023-06-10T05:20:54;21.70;99.90
25346;DHT22;13300;51.032;3.710;2023-06-10T05:23:20;21.80;99.90
25346;DHT22;13300;51.032;3.710;2023-06-10T05:25:46;21.80;99.90
25346;DHT22;13300;51.032;3.710;2023-06-10T05:28:13;21.90;99.90
25346;DHT22;13300;51.032;3.710;2023-06-10T05:30:39;21.90;99.90
25346;DHT22;13300;51.032;3.710;2023-06-10T05:33:05;22.00;99.90
25346;DHT22;13300;51.032;3.710;2023-06-10T05:35:31;22.00;99.90
25346;DHT22;13300;51.032;3.710;2023-06-10T05:37:57;22.10;99.90
25346;DHT22;13300;51.032;3.710;2023-06-10T05:40:22;22.20;99.90
25346;DHT22;13300;51.032;3.710;2023-06-10T05:42:48;22.40;99.90
25346;DHT22;13300;51.032;3.710;2023-06-10T05:45:14;22.50;99.90
25346;DHT22;13300;51.032;3.710;2023-06-10T05:47:41;22.70;99.90
25346;DHT22;13300;51.032;3.710;2023-06-10T05:50:07;22.70;99.90
25346;DHT22;13300;51.032;3.710;2023-06-10T05:52:37;22.60;99.90
25346;DHT22;13300;51.032;3.710;2023-06-10T05:55:06;22.60;99.90
25346;DHT22;13300;51.032;3.710;2023-06-10T05:57:31;22.80;99.90
25346;DHT22;13300;51.032;3.710;2023-06-10T05:59:57;22.90;99.90
25346;DHT22;13300;51.032;3.710;2023-06-10T06:02:24;23.00;99.90
25346;DHT22;13300;51.032;3.710;2023-06-10T06:04:49;23.00;99.90
25346;DHT22;13300;51.032;3.710;2023-06-10T06:07:15;23.20;99.90
25346;DHT22;13300;51.032;3.710;2023-06-10T06:09:41;23.20;99.90
25346;DHT22;13300;51.032;3.710;2023-06-10T06:12:09;23.20;99.90
25346;DHT22;13300;51.032;3.710;2023-06-10T06:14:39;23.40;99.90
25346;DHT22;13300;51.032;3.710;2023-06-10T06:17:06;23.50;99.90
25346;DHT22;13300;51.032;3.710;2023-06-10T06:19:32;23.70;99.90
25346;DHT22;13300;51.032;3.710;2023-06-10T06:21:57;23.80;99.90
25346;DHT22;13300;51.032;3.710;2023-06-10T06:24:26;23.80;99.90
25346;DHT22;13300;51.032;3.710;2023-06-10T06:26:51;23.80;99.90
25346;DHT22;13300;51.032;3.710;2023-06-10T06:29:17;23.90;99.90
25346;DHT22;13300;51.032;3.710;2023-06-10T06:31:43;24.00;99.90
25346;DHT22;13300;51.032;3.710;2023-06-10T06:34:09;24.00;99.90
25346;DHT22;13300;51.032;3.710;2023-06-10T06:36:35;24.10;99.90
25346;DHT22;13300;51.032;3.710;2023-06-10T06:39:00;24.20;99.90
25346;DHT22;13300;51.032;3.710;2023-06-10T06:41:27;24.20;99.90
25346;DHT22;13300;51.032;3.710;2023-06-10T06:43:56;24.30;99.90
25346;DHT22;13300;51.032;3.710;2023-06-10T06:46:24;24.50;99.90
25346;DHT22;13300;51.032;3.710;2023-06-10T06:48:50;24.60;99.90
25346;DHT22;13300;51.032;3.710;2023-06-10T06:51:16;24.80;99.90
25346;DHT22;13300;51.032;3.710;2023-06-10T06:53:42;24.80;99.90
25346;DHT22;13300;51.032;3.710;2023-06-10T06:56:24;25.00;99.90
25346;DHT22;13300;51.032;3.710;2023-06-10T07:01:57;25.10;99.90
25346;DHT22;13300;51.032;3.710;2023-06-10T07:04:23;25.20;99.90
25346;DHT22;13300;51.032;3.710;2023-06-10T07:06:51;25.30;99.90
25346;DHT22;13300;51.032;3.710;2023-06-10T07:09:19;25.40;99.90
25346;DHT22;13300;51.032;3.710;2023-06-10T07:11:46;25.50;99.90
25346;DHT22;13300;51.032;3.710;2023-06-10T07:14:14;25.70;99.90
25346;DHT22;13300;51.032;3.710;2023-06-10T07:16:39;25.90;99.90
25346;DHT22;13300;51.032;3.710;2023-06-10T07:19:05;26.10;99.90
25346;DHT22;13300;51.032;3.710;2023-06-10T07:21:31;26.40;99.90
25346;DHT22;13300;51.032;3.710;2023-06-10T07:23:59;26.50;99.90
25346;DHT22;13300;51.032;3.710;2023-06-10T07:26:25;26.90;99.50
25346;DHT22;13300;51.032;3.710;2023-06-10T07:28:51;27.30;97.90
25346;DHT22;13300;51.032;3.710;2023-06-10T07:31:19;27.60;97.70
25346;DHT22;13300;51.032;3.710;2023-06-10T07:33:45;28.10;96.50
25346;DHT22;13300;51.032;3.710;2023-06-10T07:36:11;28.40;95.50
25346;DHT22;13300;51.032;3.710;2023-06-10T07:38:37;29.10;94.00
25346;DHT22;13300;51.032;3.710;2023-06-10T07:41:09;30.00;93.40
25346;DHT22;13300;51.032;3.710;2023-06-10T07:43:38;30.50;91.90
25346;DHT22;13300;51.032;3.710;2023-06-10T07:46:03;31.00;91.00
25346;DHT22;13300;51.032;3.710;2023-06-10T07:48:31;31.10;90.40
25346;DHT22;13300;51.032;3.710;2023-06-10T07:50:57;31.70;88.90
25346;DHT22;13300;51.032;3.710;2023-06-10T07:53:22;31.90;87.80
25346;DHT22;13300;51.032;3.710;2023-06-10T07:55:48;31.90;87.90
25346;DHT22;13300;51.032;3.710;2023-06-10T07:58:14;32.60;87.20
25346;DHT22;13300;51.032;3.710;2023-06-10T08:00:40;33.10;83.60
25346;DHT22;13300;51.032;3.710;2023-06-10T08:03:05;33.10;84.00
25346;DHT22;13300;51.032;3.710;2023-06-10T08:05:40;33.20;84.80
25346;DHT22;13300;51.032;3.710;2023-06-10T08:08:06;33.90;83.30
25346;DHT22;13300;51.032;3.710;2023-06-10T08:10:35;34.20;79.40
25346;DHT22;13300;51.032;3.710;2023-06-10T08:13:03;33.70;79.90
25346;DHT22;13300;51.032;3.710;2023-06-10T08:15:29;33.50;79.70
25346;DHT22;13300;51.032;3.710;2023-06-10T08:18:05;33.60;81.00
25346;DHT22;13300;51.032;3.710;2023-06-10T08:20:31;33.90;79.50
25346;DHT22;13300;51.032;3.710;2023-06-10T08:22:57;34.30;79.00
25346;DHT22;13300;51.032;3.710;2023-06-10T08:25:23;34.60;78.10
25346;DHT22;13300;51.032;3.710;2023-06-10T08:27:49;34.90;76.80
25346;DHT22;13300;51.032;3.710;2023-06-10T08:30:16;34.90;77.90
25346;DHT22;13300;51.032;3.710;2023-06-10T08:32:42;35.30;76.10
25346;DHT22;13300;51.032;3.710;2023-06-10T08:35:08;35.90;74.90
25346;DHT22;13300;51.032;3.710;2023-06-10T08:37:33;36.20;72.80
25346;DHT22;13300;51.032;3.710;2023-06-10T08:39:59;36.60;72.10
25346;DHT22;13300;51.032;3.710;2023-06-10T08:45:18;36.30;72.50
25346;DHT22;13300;51.032;3.710;2023-06-10T08:47:49;35.90;71.60
25346;DHT22;13300;51.032;3.710;2023-06-10T08:50:19;35.60;72.40
25346;DHT22;13300;51.032;3.710;2023-06-10T08:52:48;36.50;71.70
25346;DHT22;13300;51.032;3.710;2023-06-10T08:55:43;37.30;69.90
25346;DHT22;13300;51.032;3.710;2023-06-10T08:58:11;37.10;69.60
25346;DHT22;13300;51.032;3.710;2023-06-10T09:00:39;37.20;71.20
25346;DHT22;13300;51.032;3.710;2023-06-10T09:03:05;37.10;68.30
25346;DHT22;13300;51.032;3.710;2023-06-10T09:05:34;36.80;68.40
25346;DHT22;13300;51.032;3.710;2023-06-10T09:08:02;36.70;70.70
25346;DHT22;13300;51.032;3.710;2023-06-10T09:10:28;37.20;69.80
25346;DHT22;13300;51.032;3.710;2023-06-10T09:12:54;37.50;69.70
25346;DHT22;13300;51.032;3.710;2023-06-10T09:15:21;37.90;67.40
25346;DHT22;13300;51.032;3.710;2023-06-10T09:17:46;38.10;66.90
25346;DHT22;13300;51.032;3.710;2023-06-10T09:20:12;37.70;66.00
25346;DHT22;13300;51.032;3.710;2023-06-10T09:22:38;37.70;68.60
25346;DHT22;13300;51.032;3.710;2023-06-10T09:25:08;38.30;69.00
25346;DHT22;13300;51.032;3.710;2023-06-10T09:27:54;38.20;64.90
25346;DHT22;13300;51.032;3.710;2023-06-10T09:30:30;37.70;65.40
25346;DHT22;13300;51.032;3.710;2023-06-10T09:32:58;38.10;67.40
25346;DHT22;13300;51.032;3.710;2023-06-10T09:35:24;37.90;65.30
25346;DHT22;13300;51.032;3.710;2023-06-10T09:37:56;38.10;66.40
25346;DHT22;13300;51.032;3.710;2023-06-10T09:40:22;38.60;66.10
25346;DHT22;13300;51.032;3.710;2023-06-10T09:42:54;38.70;65.00
25346;DHT22;13300;51.032;3.710;2023-06-10T09:45:20;38.20;65.10
25346;DHT22;13300;51.032;3.710;2023-06-10T09:47:47;38.20;67.00
25346;DHT22;13300;51.032;3.710;2023-06-10T09:50:13;37.90;65.30
25346;DHT22;13300;51.032;3.710;2023-06-10T09:52:39;38.30;66.10
25346;DHT22;13300;51.032;3.710;2023-06-10T09:55:08;38.70;64.60
25346;DHT22;13300;51.032;3.710;2023-06-10T09:57:36;38.80;63.20
25346;DHT22;13300;51.032;3.710;2023-06-10T10:00:09;39.20;63.80
25346;DHT22;13300;51.032;3.710;2023-06-10T10:02:49;39.10;63.10
25346;DHT22;13300;51.032;3.710;2023-06-10T10:05:19;39.00;63.70
25346;DHT22;13300;51.032;3.710;2023-06-10T10:07:46;39.10;64.00
25346;DHT22;13300;51.032;3.710;2023-06-10T10:10:13;39.90;62.30
25346;DHT22;13300;51.032;3.710;2023-06-10T10:12:41;39.80;61.70
25346;DHT22;13300;51.032;3.710;2023-06-10T10:15:11;38.90;60.30
25346;DHT22;13300;51.032;3.710;2023-06-10T10:17:43;38.40;63.10
25346;DHT22;13300;51.032;3.710;2023-06-10T10:20:12;38.50;63.40
25346;DHT22;13300;51.032;3.710;2023-06-10T10:22:39;38.20;63.70
25346;DHT22;13300;51.032;3.710;2023-06-10T10:25:11;38.50;63.90
25346;DHT22;13300;51.032;3.710;2023-06-10T10:30:30;39.20;60.70
25346;DHT22;13300;51.032;3.710;2023-06-10T10:33:09;39.30;62.10
25346;DHT22;13300;51.032;3.710;2023-06-10T10:35:40;39.50;61.20
25346;DHT22;13300;51.032;3.710;2023-06-10T10:38:07;39.00;61.20
25346;DHT22;13300;51.032;3.710;2023-06-10T10:40:34;39.10;60.40
25346;DHT22;13300;51.032;3.710;2023-06-10T10:43:00;39.10;59.40
25346;DHT22;13300;51.032;3.710;2023-06-10T10:45:28;38.70;59.40
25346;DHT22;13300;51.032;3.710;2023-06-10T10:47:54;38.70;60.00
25346;DHT22;13300;51.032;3.710;2023-06-10T10:50:22;38.60;63.30
25346;DHT22;13300;51.032;3.710;2023-06-10T10:52:59;39.30;59.90
25346;DHT22;13300;51.032;3.710;2023-06-10T10:55:26;39.50;58.80
25346;DHT22;13300;51.032;3.710;2023-06-10T11:00:32;38.70;59.60
25346;DHT22;13300;51.032;3.710;2023-06-10T11:05:41;39.10;59.20
25346;DHT22;13300;51.032;3.710;2023-06-10T11:08:10;39.40;56.60
25346;DHT22;13300;51.032;3.710;2023-06-10T11:10:41;39.10;57.20
25346;DHT22;13300;51.032;3.710;2023-06-10T11:13:26;38.90;58.80
25346;DHT22;13300;51.032;3.710;2023-06-10T11:15:57;38.80;58.00
25346;DHT22;13300;51.032;3.710;2023-06-10T11:18:24;39.00;57.70
25346;DHT22;13300;51.032;3.710;2023-06-10T11:33:58;39.50;55.70
25346;DHT22;13300;51.032;3.710;2023-06-10T11:36:25;39.00;55.90
25346;DHT22;13300;51.032;3.710;2023-06-10T11:38:56;38.50;55.40
25346;DHT22;13300;51.032;3.710;2023-06-10T11:41:24;38.60;56.60
25346;DHT22;13300;51.032;3.710;2023-06-10T11:43:51;38.70;56.20
25346;DHT22;13300;51.032;3.710;2023-06-10T11:46:17;38.60;56.30
25346;DHT22;13300;51.032;3.710;2023-06-10T11:48:54;38.70;56.80
25346;DHT22;13300;51.032;3.710;2023-06-10T11:51:20;39.00;56.80
25346;DHT22;13300;51.032;3.710;2023-06-10T11:53:49;38.90;56.40
25346;DHT22;13300;51.032;3.710;2023-06-10T11:56:25;38.70;55.30
25346;DHT22;13300;51.032;3.710;2023-06-10T11:58:56;38.70;56.00
25346;DHT22;13300;51.032;3.710;2023-06-10T12:01:23;38.90;55.00
25346;DHT22;13300;51.032;3.710;2023-06-10T12:04:10;38.70;55.50
25346;DHT22;13300;51.032;3.710;2023-06-10T12:06:49;39.40;54.70
25346;DHT22;13300;51.032;3.710;2023-06-10T12:09:28;39.20;55.20
25346;DHT22;13300;51.032;3.710;2023-06-10T12:12:04;39.50;56.70
25346;DHT22;13300;51.032;3.710;2023-06-10T12:14:56;38.40;55.80
25346;DHT22;13300;51.032;3.710;2023-06-10T12:20:00;37.20;56.70
25346;DHT22;13300;51.032;3.710;2023-06-10T12:22:26;37.60;57.60
25346;DHT22;13300;51.032;3.710;2023-06-10T12:25:00;38.20;55.60
25346;DHT22;13300;51.032;3.710;2023-06-10T12:27:27;38.50;55.70
25346;DHT22;13300;51.032;3.710;2023-06-10T12:29:55;38.30;56.10
25346;DHT22;13300;51.032;3.710;2023-06-10T12:32:45;37.50;56.40
25346;DHT22;13300;51.032;3.710;2023-06-10T12:35:12;37.00;55.60
25346;DHT22;13300;51.032;3.710;2023-06-10T12:37:42;37.40;55.80
25346;DHT22;13300;51.032;3.710;2023-06-10T12:40:08;37.60;56.00
25346;DHT22;13300;51.032;3.710;2023-06-10T12:42:37;37.50;56.60
25346;DHT22;13300;51.032;3.710;2023-06-10T12:45:03;37.40;57.00
25346;DHT22;13300;51.032;3.710;2023-06-10T12:47:34;38.20;56.10
25346;DHT22;13300;51.032;3.710;2023-06-10T12:50:07;37.80;55.60
25346;DHT22;13300;51.032;3.710;2023-06-10T12:52:33;37.60;55.70
25346;DHT22;13300;51.032;3.710;2023-06-10T12:54:59;37.90;55.90
25346;DHT22;13300;51.032;3.710;2023-06-10T12:57:25;38.20;55.00
25346;DHT22;13300;51.032;3.710;2023-06-10T12:59:51;38.00;55.10
25346;DHT22;13300;51.032;3.710;2023-06-10T13:02:26;38.10;54.90
25346;DHT22;13300;51.032;3.710;2023-06-10T13:04:51;37.70;56.00
25346;DHT22;13300;51.032;3.710;2023-06-10T13:07:17;38.20;55.60
25346;DHT22;13300;51.032;3.710;2023-06-10T13:09:43;38.90;54.60
25346;DHT22;13300;51.032;3.710;2023-06-10T13:12:09;39.00;54.60
25346;DHT22;13300;51.032;3.710;2023-06-10T13:14:36;39.20;53.10
25346;DHT22;13300;51.032;3.710;2023-06-10T13:17:03;39.20;53.40
25346;DHT22;13300;51.032;3.710;2023-06-10T13:19:31;38.20;53.70
25346;DHT22;13300;51.032;3.710;2023-06-10T13:21:57;38.20;53.80
25346;DHT22;13300;51.032;3.710;2023-06-10T13:24:23;38.30;55.30
25346;DHT22;13300;51.032;3.710;2023-06-10T13:26:49;39.10;55.00
25346;DHT22;13300;51.032;3.710;2023-06-10T13:29:15;39.70;53.20
25346;DHT22;13300;51.032;3.710;2023-06-10T13:31:40;39.10;54.00
25346;DHT22;13300;51.032;3.710;2023-06-10T13:34:07;38.70;53.40
25346;DHT22;13300;51.032;3.710;2023-06-10T13:36:33;38.40;53.90
25346;DHT22;13300;51.032;3.710;2023-06-10T13:38:59;38.80;54.90
25346;DHT22;13300;51.032;3.710;2023-06-10T13:41:25;39.10;54.40
25346;DHT22;13300;51.032;3.710;2023-06-10T13:43:54;38.70;54.10
25346;DHT22;13300;51.032;3.710;2023-06-10T13:46:20;38.80;54.00
25346;DHT22;13300;51.032;3.710;2023-06-10T13:48:55;39.00;55.30
25346;DHT22;13300;51.032;3.710;2023-06-10T13:51:27;39.40;54.40
25346;DHT22;13300;51.032;3.710;2023-06-10T13:53:52;38.80;54.20
25346;DHT22;13300;51.032;3.710;2023-06-10T13:56:19;37.40;55.20
25346;DHT22;13300;51.032;3.710;2023-06-10T13:58:44;36.70;56.00
25346;DHT22;13300;51.032;3.710;2023-06-10T14:01:10;36.40;56.30
25346;DHT22;13300;51.032;3.710;2023-06-10T14:03:36;36.40;57.40
25346;DHT22;13300;51.032;3.710;2023-06-10T14:06:02;36.60;56.40
25346;DHT22;13300;51.032;3.710;2023-06-10T14:08:28;37.40;56.50
25346;DHT22;13300;51.032;3.710;2023-06-10T14:10:53;37.20;57.20
25346;DHT22;13300;51.032;3.710;2023-06-10T14:13:19;37.20;56.10
25346;DHT22;13300;51.032;3.710;2023-06-10T14:15:45;37.50;55.90
25346;DHT22;13300;51.032;3.710;2023-06-10T14:18:12;37.30;55.40
25346;DHT22;13300;51.032;3.710;2023-06-10T14:20:37;36.70;55.00
25346;DHT22;13300;51.032;3.710;2023-06-10T14:23:03;36.60;56.40
25346;DHT22;13300;51.032;3.710;2023-06-10T14:25:29;36.50;56.30
25346;DHT22;13300;51.032;3.710;2023-06-10T14:27:54;37.00;55.60
25346;DHT22;13300;51.032;3.710;2023-06-10T14:30:20;37.60;56.20
25346;DHT22;13300;51.032;3.710;2023-06-10T14:32:45;38.10;55.40
25346;DHT22;13300;51.032;3.710;2023-06-10T14:35:11;38.80;54.60
25346;DHT22;13300;51.032;3.710;2023-06-10T14:37:37;39.20;54.50
25346;DHT22;13300;51.032;3.710;2023-06-10T14:40:04;39.40;54.30
25346;DHT22;13300;51.032;3.710;2023-06-10T14:42:30;39.50;53.60
25346;DHT22;13300;51.032;3.710;2023-06-10T14:44:58;38.90;53.40
25346;DHT22;13300;51.032;3.710;2023-06-10T14:47:26;38.50;55.40
25346;DHT22;13300;51.032;3.710;2023-06-10T14:49:51;39.00;54.50
25346;DHT22;13300;51.032;3.710;2023-06-10T14:52:17;39.00;54.90
25346;DHT22;13300;51.032;3.710;2023-06-10T14:54:45;38.70;53.60
25346;DHT22;13300;51.032;3.710;2023-06-10T14:57:11;37.60;54.80
25346;DHT22;13300;51.032;3.710;2023-06-10T14:59:37;36.90;55.70
25346;DHT22;13300;51.032;3.710;2023-06-10T15:02:03;36.90;55.50
25346;DHT22;13300;51.032;3.710;2023-06-10T15:04:28;35.50;56.80
25346;DHT22;13300;51.032;3.710;2023-06-10T15:06:57;35.20;58.00
25346;DHT22;13300;51.032;3.710;2023-06-10T15:09:23;35.40;57.60
25346;DHT22;13300;51.032;3.710;2023-06-10T15:11:49;35.90;57.30
25346;DHT22;13300;51.032;3.710;2023-06-10T15:14:14;36.70;57.10
25346;DHT22;13300;51.032;3.710;2023-06-10T15:16:40;37.00;56.20
25346;DHT22;13300;51.032;3.710;2023-06-10T15:19:06;37.50;55.40
25346;DHT22;13300;51.032;3.710;2023-06-10T15:21:33;37.00;55.80
25346;DHT22;13300;51.032;3.710;2023-06-10T15:23:59;37.10;55.80
25346;DHT22;13300;51.032;3.710;2023-06-10T15:26:25;36.90;56.20
25346;DHT22;13300;51.032;3.710;2023-06-10T15:28:51;37.20;54.90
25346;DHT22;13300;51.032;3.710;2023-06-10T15:31:16;37.10;55.60
25346;DHT22;13300;51.032;3.710;2023-06-10T15:33:42;36.90;55.40
25346;DHT22;13300;51.032;3.710;2023-06-10T15:36:08;36.80;56.40
25346;DHT22;13300;51.032;3.710;2023-06-10T15:38:36;36.90;55.90
25346;DHT22;13300;51.032;3.710;2023-06-10T15:41:02;36.80;55.60
25346;DHT22;13300;51.032;3.710;2023-06-10T15:43:28;36.50;56.40
25346;DHT22;13300;51.032;3.710;2023-06-10T15:45:54;36.20;56.30
25346;DHT22;13300;51.032;3.710;2023-06-10T15:48:20;36.40;56.00
25346;DHT22;13300;51.032;3.710;2023-06-10T15:50:46;36.40;55.60
25346;DHT22;13300;51.032;3.710;2023-06-10T15:53:11;36.50;55.80
25346;DHT22;13300;51.032;3.710;2023-06-10T15:55:38;36.70;56.30
25346;DHT22;13300;51.032;3.710;2023-06-10T15:58:03;37.10;55.40
25346;DHT22;13300;51.032;3.710;2023-06-10T16:00:29;36.90;54.90
25346;DHT22;13300;51.032;3.710;2023-06-10T16:02:55;36.40;55.10
25346;DHT22;13300;51.032;3.710;2023-06-10T16:05:21;36.20;55.50